Impacts TAF Board
For situational awareness. Not to be used for flight planning purposes.
IDs:

KPIT - Pittsburgh Intl, PA, US

Issued at 2056 UTC 18 Nov 2018
Updated at 2312 UTC 18 Nov 2018
Potential Impact None Slight Moderate High
Time<<20/00Z 20/01Z 20/02Z 20/03Z 20/04Z 20/05Z 20/06Z 20/07Z 20/08Z 20/09Z 20/10Z 20/11Z 20/12Z
Type
VIS
CIG
Cover
FltCat
WX
WDir
WSpd
WGst
Raw TAF
KPIT 182056Z 1821/1924 01005KT P6SM BKN050
  FM190100 32005KT P6SM OVC020
  FM190300 00000KT 5SM -RASN OVC015
  FM190700 00000KT P6SM VCSH OVC008
  FM191800 VRB04KT P6SM BKN015


METAR Board
Radar Display
Forecast Discussion
For situational awareness. Not to be used for flight planning purposes.